Time;durP1;ratioP1;P1;durP2;ratioP2;P2;SDS_P1;SDS_P2;PMS_P1;PMS_P2;Temp;Humidity;BMP_temperature;BMP_pressure;BME280_temperature;BME280_humidity;BME280_pressure;Samples;Min_cycle;Max_cycle;Signal;HPM_P1;HPM_P2
2021/08/27 04:15:41;;;;;;;8.00;3.45;;;12.30;99.90;;;;;;5610422;23;20040;-95
2021/08/27 05:06:08;;;;;;;6.35;2.60;;;12.30;99.90;;;;;;5932866;23;19922;-96
2021/08/27 05:08:36;;;;;;;8.05;3.08;;;12.30;99.90;;;;;;4909955;29;20040;-96
2021/08/27 05:11:04;;;;;;;8.07;3.50;;;12.30;99.90;;;;;;4897232;29;20040;-96
2021/08/27 05:13:32;;;;;;;10.98;3.50;;;12.30;99.90;;;;;;4913213;29;20043;-95
2021/08/27 05:15:58;;;;;;;13.93;3.38;;;12.30;99.90;;;;;;4913732;29;20100;-96
2021/08/27 05:18:29;;;;;;;15.02;4.45;;;12.30;99.90;;;;;;4912975;29;20032;-95
2021/08/27 05:20:56;;;;;;;7.50;3.10;;;12.30;99.90;;;;;;4895856;29;20052;-96
2021/08/27 05:23:23;;;;;;;7.07;2.85;;;12.30;99.90;;;;;;4901667;29;20045;-95
2021/08/27 05:25:52;;;;;;;9.85;3.10;;;12.30;99.90;;;;;;4916912;29;20039;-96
2021/08/27 05:28:24;;;;;;;11.48;3.00;;;12.30;99.90;;;;;;4919335;29;20031;-95
2021/08/27 05:30:53;;;;;;;;;;;12.30;99.90;;;;;;4921605;29;20035;-96
2021/08/27 05:33:28;;;;;;;10.25;2.67;;;12.30;99.90;;;;;;4915834;29;19938;-96
2021/08/27 05:35:56;;;;;;;7.57;3.17;;;12.40;99.90;;;;;;4914838;29;20040;-96
2021/08/27 05:38:25;;;;;;;12.50;3.60;;;12.40;99.90;;;;;;4899094;29;20040;-96
2021/08/27 05:40:54;;;;;;;6.25;2.70;;;12.40;99.90;;;;;;4899799;29;20028;-96
2021/08/27 05:43:40;;;;;;;6.05;2.78;;;12.40;99.90;;;;;;4902505;29;20096;-96
2021/08/27 05:46:07;;;;;;;4.75;2.50;;;12.40;99.90;;;;;;4916056;29;20132;-96
2021/08/27 05:48:35;;;;;;;7.35;3.25;;;12.40;99.90;;;;;;4898444;29;20041;-96
2021/08/27 05:54:21;;;;;;;9.52;3.20;;;12.50;99.90;;;;;;4919604;29;20032;-96
2021/08/27 05:56:51;;;;;;;16.15;3.75;;;12.50;99.90;;;;;;4921180;29;20051;-96
2021/08/27 05:59:17;;;;;;;6.93;3.10;;;12.50;99.90;;;;;;4905457;29;20020;-95
2021/08/27 06:01:46;;;;;;;14.68;3.80;;;12.50;99.90;;;;;;4918183;29;20376;-96
2021/08/27 06:04:27;;;;;;;8.30;3.50;;;12.50;99.90;;;;;;4916512;29;20043;-96
2021/08/27 06:06:53;;;;;;;11.75;3.20;;;12.50;99.90;;;;;;4916439;29;20052;-95
2021/08/27 06:09:27;;;;;;;8.98;3.38;;;12.50;99.90;;;;;;4884632;29;20032;-95
2021/08/27 06:12:15;;;;;;;13.95;3.50;;;12.50;99.90;;;;;;4920473;29;20036;-95
2021/08/27 06:22:51;;;;;;;9.57;2.92;;;12.50;99.90;;;;;;5594106;23;20125;-95
2021/08/27 06:25:18;;;;;;;10.45;4.32;;;12.50;99.90;;;;;;4921038;29;20075;-95
2021/08/27 06:27:49;;;;;;;8.70;3.13;;;12.50;99.90;;;;;;4908811;29;20036;-95
2021/08/27 06:30:27;;;;;;;;;;;12.50;99.90;;;;;;4921251;29;20039;-95
2021/08/27 06:32:55;;;;;;;10.75;2.90;;;12.60;99.90;;;;;;4905781;29;19912;-96
2021/08/27 06:35:25;;;;;;;7.43;2.97;;;12.60;99.90;;;;;;4925348;29;20052;-95
2021/08/27 06:40:46;;;;;;;6.50;2.40;;;12.70;99.90;;;;;;4908730;29;20061;-96
2021/08/27 06:57:07;;;;;;;6.05;2.75;;;12.90;99.90;;;;;;4982430;23;20525;-96
2021/08/27 07:00:26;;;;;;;11.35;4.13;;;12.90;99.90;;;;;;4909634;29;20492;-96
2021/08/27 07:02:54;;;;;;;12.02;3.00;;;13.00;99.90;;;;;;4842007;29;20112;-96
2021/08/27 07:05:27;;;;;;;7.25;2.55;;;13.00;99.90;;;;;;4924247;29;20028;-96
2021/08/27 07:08:00;;;;;;;7.57;2.85;;;13.10;99.90;;;;;;4913275;29;20033;-96
2021/08/27 07:10:27;;;;;;;7.72;2.88;;;13.10;99.90;;;;;;4902997;29;20045;-96
2021/08/27 07:12:53;;;;;;;6.78;2.50;;;13.20;99.90;;;;;;4931139;29;20055;-96
2021/08/27 07:15:30;;;;;;;8.40;2.83;;;13.20;99.90;;;;;;4922566;29;20036;-96
2021/08/27 07:18:02;;;;;;;6.60;2.30;;;13.20;99.90;;;;;;4918092;29;20036;-96
2021/08/27 07:20:29;;;;;;;7.93;2.88;;;13.20;99.90;;;;;;4914589;29;20036;-96
2021/08/27 07:28:42;;;;;;;4.38;2.30;;;13.50;99.90;;;;;;4947353;29;20059;-96
2021/08/27 07:31:10;;;;;;;8.45;3.03;;;13.50;99.90;;;;;;4915968;29;20067;-96
2021/08/27 07:33:51;;;;;;;4.47;2.03;;;13.50;99.90;;;;;;4930313;29;20115;-95
2021/08/27 07:36:19;;;;;;;8.30;2.10;;;13.60;99.90;;;;;;4936719;29;20028;-96
2021/08/27 07:38:47;;;;;;;7.47;1.90;;;13.70;99.90;;;;;;4935820;29;20051;-96
2021/08/27 07:41:26;;;;;;;3.58;1.85;;;13.80;99.90;;;;;;4937793;29;20083;-96
2021/08/27 07:44:01;;;;;;;4.47;2.08;;;13.90;99.90;;;;;;5149602;23;20023;-96
2021/08/27 07:46:35;;;;;;;6.00;2.58;;;13.90;99.90;;;;;;4900289;29;20041;-96
2021/08/27 07:49:17;;;;;;;7.45;2.58;;;13.90;99.90;;;;;;4868784;29;20037;-96
2021/08/27 07:51:47;;;;;;;6.60;2.85;;;13.90;99.90;;;;;;4934103;23;20053;-96
2021/08/27 07:54:20;;;;;;;5.30;2.67;;;13.90;99.90;;;;;;4899820;29;20029;-96
2021/08/27 07:56:46;;;;;;;6.50;2.40;;;13.90;99.90;;;;;;4917621;29;20093;-96
2021/08/27 07:59:22;;;;;;;8.95;2.75;;;13.90;99.90;;;;;;4904484;29;20024;-95
2021/08/27 08:01:52;;;;;;;7.38;2.67;;;13.90;99.90;;;;;;4925509;29;20040;-95
2021/08/27 08:07:35;;;;;;;6.75;2.60;;;13.90;99.90;;;;;;5670501;23;20055;-95
2021/08/27 08:10:20;;;;;;;6.68;2.97;;;13.90;99.90;;;;;;4915076;29;20032;-95
2021/08/27 08:12:49;;;;;;;5.70;2.88;;;13.90;99.90;;;;;;4913611;29;20099;-96
2021/08/27 08:15:23;;;;;;;6.30;2.63;;;13.90;99.90;;;;;;4917575;29;20024;-95
2021/08/27 08:18:04;;;;;;;;;;;;;;;;;;;;;
2021/08/27 08:20:43;;;;;;;;;;;;;;;;;;;;;
2021/08/27 08:23:54;;;;;;;4.43;1.98;;;13.90;99.90;;;;;;4916898;29;20056;-96
2021/08/27 08:26:46;;;;;;;5.82;2.30;;;14.00;99.90;;;;;;4901410;29;20051;-96
2021/08/27 08:29:11;;;;;;;4.78;1.70;;;14.00;99.90;;;;;;4890524;29;20060;-96
2021/08/27 08:35:30;;;;;;;3.78;2.20;;;14.00;99.90;;;;;;4914432;29;20037;-96
2021/08/27 08:38:08;;;;;;;7.53;2.42;;;13.90;99.90;;;;;;4902946;29;20033;-96
2021/08/27 08:40:50;;;;;;;3.97;1.88;;;13.90;99.90;;;;;;4898724;29;20020;-96
2021/08/27 08:43:29;;;;;;;3.50;2.00;;;13.90;99.90;;;;;;4893297;29;20040;-96
2021/08/27 08:45:58;;;;;;;3.67;2.10;;;13.90;99.90;;;;;;4882546;29;20044;-96
2021/08/27 08:48:26;;;;;;;4.65;2.20;;;14.00;99.90;;;;;;4899445;29;20035;-96
2021/08/27 08:51:38;;;;;;;3.72;1.67;;;14.20;99.90;;;;;;4898785;29;20063;-96
2021/08/27 11:05:07;;;;;;;5.45;1.20;;;16.70;99.90;;;;;;4891662;29;20057;-95
2021/08/27 11:10:10;;;;;;;3.22;1.40;;;16.80;99.90;;;;;;4943395;23;20401;-95
2021/08/27 11:12:36;;;;;;;2.33;1.15;;;16.80;99.80;;;;;;4866002;29;20026;-95
2021/08/27 11:15:26;;;;;;;1.40;0.90;;;16.90;99.80;;;;;;4865380;29;20135;-94
2021/08/27 11:18:16;;;;;;;3.85;1.23;;;16.90;99.80;;;;;;4865982;29;20518;-94
2021/08/27 11:20:47;;;;;;;3.80;1.13;;;16.80;99.70;;;;;;4866165;29;20060;-95
2021/08/27 11:23:13;;;;;;;1.85;1.10;;;16.80;99.80;;;;;;4866008;29;20518;-94
2021/08/27 11:25:57;;;;;;;3.55;1.00;;;16.80;99.70;;;;;;4865994;29;20033;-95
2021/08/27 11:28:27;;;;;;;4.70;1.00;;;16.80;99.80;;;;;;4865720;29;20507;-95
2021/08/27 11:31:10;;;;;;;3.13;1.08;;;16.80;99.80;;;;;;4866156;29;20495;-94
2021/08/27 11:33:45;;;;;;;4.10;1.50;;;16.70;99.60;;;;;;4866138;29;20066;-95
2021/08/27 11:36:12;;;;;;;4.60;1.40;;;16.70;99.60;;;;;;4865963;29;20036;-94
2021/08/27 11:38:38;;;;;;;4.95;1.55;;;16.60;99.70;;;;;;4865558;29;20040;-95
2021/08/27 11:41:04;;;;;;;10.50;1.83;;;16.40;99.90;;;;;;4865928;29;20029;-94
2021/08/27 11:43:36;;;;;;;2.65;1.42;;;16.40;99.90;;;;;;4865107;29;20492;-95
2021/08/27 11:46:05;;;;;;;2.80;1.48;;;16.30;99.90;;;;;;4865818;29;20119;-93
2021/08/27 11:48:39;;;;;;;2.72;1.40;;;16.20;99.90;;;;;;4865066;29;20036;-95
2021/08/27 11:51:11;;;;;;;6.03;1.95;;;16.20;99.90;;;;;;4865231;29;20029;-94
2021/08/27 11:53:37;;;;;;;2.40;1.25;;;16.20;99.90;;;;;;4866065;29;20033;-94
2021/08/27 11:56:03;;;;;;;3.58;1.20;;;16.20;99.90;;;;;;4866994;29;20440;-95
2021/08/27 11:58:42;;;;;;;3.60;1.50;;;16.30;99.90;;;;;;4865671;29;20033;-95
2021/08/27 12:01:26;;;;;;;3.70;1.30;;;16.30;99.90;;;;;;4865523;29;20161;-95
2021/08/27 12:03:52;;;;;;;3.00;1.33;;;16.50;99.90;;;;;;4865479;29;20068;-95
2021/08/27 12:06:20;;;;;;;2.42;1.48;;;16.70;99.90;;;;;;4866329;29;20452;-94
2021/08/27 12:08:48;;;;;;;5.18;1.80;;;16.80;99.90;;;;;;4875979;29;20048;-95
2021/08/27 12:11:15;;;;;;;4.63;2.28;;;16.90;99.40;;;;;;4899424;29;20028;-95
2021/08/27 12:13:52;;;;;;;2.53;1.75;;;16.90;99.10;;;;;;4899199;29;20029;-95
2021/08/27 12:16:19;;;;;;;4.40;1.70;;;17.00;99.00;;;;;;4899319;29;20032;-95
2021/08/27 12:18:49;;;;;;;6.65;2.03;;;17.10;98.60;;;;;;4899068;29;20065;-95
2021/08/27 12:21:19;;;;;;;4.15;1.80;;;17.10;98.20;;;;;;4899203;29;20072;-95
2021/08/27 12:24:01;;;;;;;4.32;1.63;;;17.10;98.10;;;;;;4899305;29;20036;-95
2021/08/27 12:26:29;;;;;;;3.78;1.67;;;17.10;98.20;;;;;;4898943;29;20033;-94
2021/08/27 12:28:56;;;;;;;7.88;2.13;;;17.00;98.10;;;;;;4900919;29;20024;-94
2021/08/27 12:31:23;;;;;;;2.78;1.58;;;17.00;97.90;;;;;;4906822;29;20112;-94
2021/08/27 12:33:49;;;;;;;4.72;1.80;;;17.00;97.90;;;;;;4907072;29;20064;-94
2021/08/27 12:36:15;;;;;;;4.63;1.70;;;17.00;97.90;;;;;;4909278;29;20029;-94
2021/08/27 12:38:42;;;;;;;3.17;1.98;;;17.00;97.90;;;;;;4910883;29;20108;-94
2021/08/27 12:41:12;;;;;;;6.32;1.90;;;17.10;98.00;;;;;;4909980;29;20029;-94
2021/08/27 12:43:38;;;;;;;3.25;1.80;;;17.10;98.10;;;;;;4909119;29;20051;-94
2021/08/27 12:46:03;;;;;;;4.63;2.08;;;17.30;97.90;;;;;;4912339;29;20060;-93
2021/08/27 12:48:31;;;;;;;3.40;1.77;;;17.40;97.50;;;;;;4914648;29;20063;-94
2021/08/27 12:51:04;;;;;;;3.28;1.77;;;17.50;97.10;;;;;;4913886;29;20029;-94
2021/08/27 12:53:38;;;;;;;2.60;1.60;;;17.60;96.80;;;;;;4915224;29;20164;-92
2021/08/27 12:56:16;;;;;;;4.65;1.70;;;17.60;96.70;;;;;;4907399;29;20029;-93
2021/08/27 12:58:48;;;;;;;4.85;1.73;;;17.70;96.60;;;;;;4911881;29;20064;-95
2021/08/27 13:01:21;;;;;;;3.75;2.00;;;17.60;96.40;;;;;;4909946;29;20028;-93
2021/08/27 13:03:58;;;;;;;2.92;2.15;;;17.50;96.30;;;;;;4908227;29;20414;-94
2021/08/27 13:06:37;;;;;;;2.55;1.80;;;17.40;96.30;;;;;;4907471;29;20027;-94
2021/08/27 13:09:27;;;;;;;4.85;1.98;;;17.40;96.40;;;;;;4898359;29;20052;-93
2021/08/27 13:12:00;;;;;;;3.70;1.80;;;17.20;96.60;;;;;;4870755;29;20041;-93
2021/08/27 13:14:40;;;;;;;6.72;1.90;;;17.20;96.70;;;;;;4873683;29;20037;-94
2021/08/27 13:17:08;;;;;;;7.28;2.65;;;17.10;96.90;;;;;;4877517;29;20069;-94
2021/08/27 13:19:59;;;;;;;3.25;1.83;;;17.20;97.00;;;;;;4871930;29;20054;-94
2021/08/27 13:22:31;;;;;;;4.60;1.67;;;17.20;96.90;;;;;;4871917;29;20036;-94
2021/08/27 13:25:13;;;;;;;3.13;1.45;;;17.30;97.00;;;;;;4872264;29;20527;-94
2021/08/27 13:27:44;;;;;;;4.32;1.92;;;17.40;96.80;;;;;;4870123;29;20056;-94
2021/08/27 13:30:15;;;;;;;3.33;1.60;;;17.50;96.50;;;;;;4872603;29;20029;-94
2021/08/27 13:32:48;;;;;;;3.17;1.48;;;17.60;96.30;;;;;;4870805;29;20037;-94
2021/08/27 13:35:16;;;;;;;4.43;1.50;;;17.60;95.90;;;;;;4875039;29;20044;-94
2021/08/27 13:37:43;;;;;;;4.15;1.60;;;17.70;95.80;;;;;;4871870;29;20113;-93
2021/08/27 13:40:16;;;;;;;4.07;1.88;;;17.60;95.50;;;;;;4872898;29;20032;-94
2021/08/27 13:42:46;;;;;;;7.95;2.40;;;17.60;95.30;;;;;;4891838;29;20029;-92
2021/08/27 13:45:13;;;;;;;3.63;2.08;;;17.60;95.30;;;;;;4873958;29;20035;-93
2021/08/27 13:47:42;;;;;;;8.82;2.72;;;17.50;95.40;;;;;;4871895;29;20487;-92
2021/08/27 13:50:15;;;;;;;7.68;2.17;;;17.50;95.50;;;;;;4869779;29;20025;-92
2021/08/27 13:52:47;;;;;;;5.63;2.40;;;17.40;95.50;;;;;;4870971;29;20029;-92
2021/08/27 13:55:18;;;;;;;5.15;2.83;;;17.40;95.70;;;;;;4869621;29;20032;-91
2021/08/27 13:57:48;;;;;;;6.13;2.30;;;17.30;95.80;;;;;;4890728;29;20037;-92
2021/08/27 14:00:16;;;;;;;7.18;2.55;;;17.30;95.90;;;;;;4869550;29;20030;-93
2021/08/27 14:02:44;;;;;;;5.63;2.75;;;17.20;96.00;;;;;;4872766;29;20029;-92
2021/08/27 14:05:12;;;;;;;5.93;2.55;;;17.20;96.30;;;;;;4872963;29;20025;-92
2021/08/27 14:07:38;;;;;;;5.95;2.88;;;17.10;96.40;;;;;;4873460;29;20544;-93
2021/08/27 14:10:07;;;;;;;8.57;3.45;;;17.10;96.70;;;;;;4870648;29;20049;-92
2021/08/27 14:12:34;;;;;;;7.32;2.92;;;17.10;96.80;;;;;;4869708;29;20025;-91
2021/08/27 14:15:02;;;;;;;7.45;2.72;;;17.10;97.00;;;;;;4874616;29;20031;-91
2021/08/27 14:17:28;;;;;;;6.50;3.00;;;17.00;97.00;;;;;;4875337;29;20040;-91
2021/08/27 14:19:54;;;;;;;8.40;3.20;;;17.00;97.20;;;;;;4877073;29;20133;-90
2021/08/27 14:22:20;;;;;;;8.82;2.92;;;17.10;97.30;;;;;;4872977;29;20033;-92
2021/08/27 14:24:46;;;;;;;9.07;2.92;;;17.10;97.40;;;;;;4872276;29;20491;-91
2021/08/27 14:27:12;;;;;;;6.10;2.90;;;17.10;97.30;;;;;;4872133;29;20032;-92
2021/08/27 14:29:37;;;;;;;6.88;2.60;;;17.20;97.20;;;;;;4872228;29;20040;-91
2021/08/27 14:32:04;;;;;;;7.03;2.42;;;17.10;97.00;;;;;;4871833;29;20128;-93
2021/08/27 14:34:30;;;;;;;5.47;2.42;;;17.00;97.00;;;;;;4872171;29;20032;-93
2021/08/27 14:36:56;;;;;;;6.07;2.38;;;17.00;96.90;;;;;;4875332;29;20061;-92
2021/08/27 14:39:22;;;;;;;4.10;2.05;;;17.00;96.90;;;;;;4880956;29;20044;-91
2021/08/27 14:41:48;;;;;;;3.60;2.20;;;17.00;97.00;;;;;;4876576;29;20033;-91
2021/08/27 14:44:14;;;;;;;5.45;2.22;;;16.90;96.90;;;;;;4872922;29;20037;-92
2021/08/27 14:46:40;;;;;;;6.05;2.22;;;16.80;96.80;;;;;;4874552;29;20029;-93
2021/08/27 14:49:06;;;;;;;3.75;2.25;;;16.80;96.90;;;;;;4874633;29;20036;-93
2021/08/27 14:51:32;;;;;;;3.97;2.08;;;16.70;97.10;;;;;;4872460;29;20048;-93
2021/08/27 14:53:58;;;;;;;4.43;2.30;;;16.60;97.20;;;;;;4870763;29;20516;-91
2021/08/27 14:56:23;;;;;;;5.95;2.33;;;16.60;97.50;;;;;;4875453;29;20036;-94
2021/08/27 14:58:49;;;;;;;7.22;2.60;;;16.50;97.60;;;;;;4873122;29;20041;-93
2021/08/27 15:01:15;;;;;;;7.32;2.58;;;16.40;97.80;;;;;;4873736;29;20039;-94
2021/08/27 15:03:41;;;;;;;9.70;2.78;;;16.30;98.10;;;;;;4873362;29;20057;-93
2021/08/27 15:06:07;;;;;;;6.68;3.03;;;16.30;98.30;;;;;;4874114;29;20025;-94
2021/08/27 15:08:34;;;;;;;5.38;2.33;;;16.30;98.50;;;;;;4887082;29;20077;-95
2021/08/27 15:11:00;;;;;;;5.60;2.53;;;16.30;98.70;;;;;;4866236;29;20033;-95
2021/08/27 15:13:25;;;;;;;6.65;3.20;;;16.30;98.80;;;;;;4867202;29;20448;-94
2021/08/27 15:15:51;;;;;;;8.48;3.40;;;16.40;98.90;;;;;;4865581;29;20784;-94
2021/08/27 15:18:17;;;;;;;9.35;3.28;;;16.40;98.80;;;;;;4865469;29;20037;-93
2021/08/27 15:20:43;;;;;;;6.95;3.40;;;16.40;98.80;;;;;;4866800;29;20059;-94
2021/08/27 15:23:09;;;;;;;6.38;3.25;;;16.40;98.80;;;;;;4866055;29;20068;-93
2021/08/27 15:25:34;;;;;;;7.72;2.95;;;16.50;98.90;;;;;;4864498;29;20029;-94
2021/08/27 15:28:01;;;;;;;9.63;3.20;;;16.50;99.00;;;;;;4865851;29;20029;-94
2021/08/27 15:30:28;;;;;;;8.52;3.58;;;16.60;99.00;;;;;;4866838;29;20040;-93
2021/08/27 15:32:54;;;;;;;8.55;3.30;;;16.60;99.00;;;;;;4867904;29;20116;-93
2021/08/27 15:35:20;;;;;;;9.88;3.60;;;16.70;99.00;;;;;;4871520;29;20108;-94
2021/08/27 15:37:47;;;;;;;7.20;3.20;;;16.70;99.00;;;;;;4867257;29;20132;-92
2021/08/27 15:40:21;;;;;;;6.22;3.05;;;16.80;98.90;;;;;;4867254;29;20029;-92
2021/08/27 15:42:47;;;;;;;6.28;2.85;;;16.80;98.80;;;;;;4865982;29;20033;-93
2021/08/27 15:45:13;;;;;;;6.60;2.65;;;16.80;98.70;;;;;;4865489;29;20037;-94
2021/08/27 15:47:39;;;;;;;6.13;2.45;;;16.80;98.30;;;;;;4866245;29;20048;-93
2021/08/27 15:50:08;;;;;;;6.50;2.20;;;16.70;98.10;;;;;;4865708;29;20033;-94
2021/08/27 15:52:35;;;;;;;10.35;2.25;;;16.70;98.20;;;;;;4865705;29;20108;-93
2021/08/27 15:55:01;;;;;;;8.30;2.80;;;16.60;98.20;;;;;;4868882;29;20104;-93
2021/08/27 15:57:27;;;;;;;8.70;2.72;;;16.60;98.30;;;;;;4870150;29;20511;-93
2021/08/27 15:59:53;;;;;;;5.32;2.35;;;16.60;98.30;;;;;;4866449;29;20029;-93
2021/08/27 16:02:21;;;;;;;7.93;3.10;;;16.50;98.20;;;;;;4865057;29;20041;-93
2021/08/27 16:04:47;;;;;;;6.82;2.47;;;16.50;98.20;;;;;;4864807;29;20036;-93
2021/08/27 16:07:16;;;;;;;6.35;2.72;;;16.50;98.30;;;;;;4865071;29;20025;-93
2021/08/27 16:09:44;;;;;;;4.53;2.70;;;16.50;98.10;;;;;;4864673;29;20064;-93
2021/08/27 16:12:11;;;;;;;5.07;2.33;;;16.50;98.10;;;;;;4864740;29;20487;-93
2021/08/27 16:14:37;;;;;;;7.80;2.88;;;16.50;98.20;;;;;;4864579;29;20021;-93
2021/08/27 16:17:04;;;;;;;5.63;2.60;;;16.50;98.10;;;;;;4864962;29;20047;-93
2021/08/27 16:19:29;;;;;;;7.07;2.67;;;16.60;98.20;;;;;;4864711;29;20040;-94
2021/08/27 16:21:55;;;;;;;5.43;2.35;;;16.60;98.20;;;;;;4864819;29;20041;-93
2021/08/27 16:24:21;;;;;;;5.65;2.17;;;16.60;98.20;;;;;;4865239;29;20124;-93
2021/08/27 16:26:47;;;;;;;8.68;2.72;;;16.70;98.20;;;;;;4872930;29;20039;-93
2021/08/27 16:29:14;;;;;;;8.48;2.95;;;16.70;98.40;;;;;;4881296;29;20033;-93
2021/08/27 16:31:40;;;;;;;12.05;4.85;;;16.70;98.00;;;;;;4881865;29;20143;-93
2021/08/27 16:34:06;;;;;;;5.47;2.95;;;16.70;97.90;;;;;;4865697;29;20037;-93
2021/08/27 16:36:32;;;;;;;7.30;2.67;;;16.60;97.80;;;;;;4864749;29;20073;-93
2021/08/27 16:38:59;;;;;;;7.25;3.28;;;16.60;97.80;;;;;;4865264;29;20499;-93
2021/08/27 16:41:25;;;;;;;5.78;3.03;;;16.50;97.80;;;;;;4864798;29;20029;-92
2021/08/27 16:43:58;;;;;;;7.72;4.07;;;16.50;97.80;;;;;;4864558;29;20040;-93
2021/08/27 16:46:24;;;;;;;6.07;2.80;;;16.40;97.80;;;;;;4864229;29;20025;-93
2021/08/27 16:48:53;;;;;;;9.00;2.75;;;16.40;97.90;;;;;;4864210;29;20033;-93
2021/08/27 16:51:18;;;;;;;7.40;3.00;;;16.40;97.90;;;;;;4867042;29;20085;-92
2021/08/27 16:53:47;;;;;;;5.00;2.60;;;16.30;97.90;;;;;;4864154;29;20510;-93
2021/08/27 16:56:13;;;;;;;8.15;3.03;;;16.30;98.00;;;;;;4864176;29;20029;-92
2021/08/27 16:58:39;;;;;;;7.63;3.15;;;16.30;98.20;;;;;;4864396;29;20051;-92
2021/08/27 17:01:04;;;;;;;8.98;3.30;;;16.30;98.20;;;;;;4863933;29;20025;-93
2021/08/27 17:03:30;;;;;;;7.53;3.35;;;16.30;98.30;;;;;;4863836;29;20444;-93
2021/08/27 17:05:56;;;;;;;9.35;3.30;;;16.30;98.30;;;;;;4864283;29;20021;-93
2021/08/27 17:08:22;;;;;;;8.20;3.13;;;16.30;98.40;;;;;;4866078;29;20412;-93
2021/08/27 17:10:48;;;;;;;7.30;2.95;;;16.20;98.40;;;;;;4883402;29;20036;-92
2021/08/27 17:13:15;;;;;;;9.43;3.20;;;16.20;98.30;;;;;;4882782;29;20029;-92
2021/08/27 17:15:40;;;;;;;5.63;2.60;;;16.20;98.40;;;;;;4884142;29;20028;-92
2021/08/27 17:18:10;;;;;;;4.78;2.97;;;16.10;98.50;;;;;;4882298;29;20494;-93
2021/08/27 17:20:36;;;;;;;6.30;2.83;;;16.10;98.60;;;;;;4882001;29;20093;-93
2021/08/27 17:23:02;;;;;;;11.40;2.80;;;16.20;98.70;;;;;;4883618;29;20060;-92
2021/08/27 17:25:28;;;;;;;8.80;3.22;;;16.10;98.90;;;;;;4882812;29;20029;-93
2021/08/27 17:27:54;;;;;;;6.38;2.90;;;16.10;99.20;;;;;;4883106;29;20471;-94
2021/08/27 17:30:20;;;;;;;10.98;3.03;;;16.00;99.50;;;;;;4885393;29;20040;-92
2021/08/27 17:32:47;;;;;;;6.35;2.95;;;16.00;99.80;;;;;;4889168;29;20033;-92
2021/08/27 17:35:12;;;;;;;8.18;3.25;;;15.90;99.90;;;;;;4884752;29;20112;-92
2021/08/27 17:37:41;;;;;;;6.60;2.78;;;15.90;99.90;;;;;;4882545;29;20044;-92
2021/08/27 17:40:08;;;;;;;12.05;3.75;;;15.90;99.90;;;;;;4883188;29;20024;-92
2021/08/27 17:42:36;;;;;;;8.00;2.75;;;15.90;99.90;;;;;;4884243;29;20033;-93
2021/08/27 17:45:02;;;;;;;5.65;2.67;;;15.90;99.90;;;;;;4868000;29;20047;-94
2021/08/27 17:47:28;;;;;;;9.88;2.83;;;15.90;99.90;;;;;;4884077;29;20028;-94
2021/08/27 17:49:54;;;;;;;6.05;2.97;;;15.90;99.90;;;;;;4886585;29;20021;-93
2021/08/27 17:52:20;;;;;;;9.80;2.70;;;15.90;99.90;;;;;;4889781;29;20060;-92
2021/08/27 17:54:47;;;;;;;7.25;2.80;;;15.90;99.90;;;;;;4888745;29;20037;-94
2021/08/27 17:57:14;;;;;;;6.07;2.70;;;15.80;99.90;;;;;;4904060;29;20036;-93
2021/08/27 17:59:40;;;;;;;4.75;1.92;;;15.80;99.90;;;;;;4887640;29;20090;-92
2021/08/27 18:02:06;;;;;;;7.85;2.75;;;15.80;99.90;;;;;;4886721;29;20033;-92
2021/08/27 18:04:31;;;;;;;5.25;2.10;;;15.70;99.90;;;;;;4888553;29;20434;-92
2021/08/27 18:06:57;;;;;;;7.03;2.55;;;15.70;99.90;;;;;;4889429;29;20039;-92
2021/08/27 18:09:23;;;;;;;6.38;1.88;;;15.70;99.90;;;;;;4893976;29;20064;-92
2021/08/27 18:11:48;;;;;;;7.93;1.95;;;15.70;99.90;;;;;;4901789;29;20032;-92
2021/08/27 18:14:17;;;;;;;7.22;2.03;;;15.60;99.90;;;;;;4906455;29;20043;-91
2021/08/27 18:16:50;;;;;;;5.57;1.65;;;15.60;99.90;;;;;;4924650;29;20180;-93
2021/08/27 18:19:16;;;;;;;6.03;2.42;;;15.60;99.90;;;;;;4924447;29;20020;-92
2021/08/27 18:21:42;;;;;;;4.88;1.60;;;15.60;99.90;;;;;;4906407;29;20039;-93
2021/08/27 18:24:09;;;;;;;6.78;1.92;;;15.60;99.90;;;;;;4901401;29;20031;-92
2021/08/27 18:26:35;;;;;;;2.97;1.55;;;15.60;99.90;;;;;;4900889;29;20028;-92
2021/08/27 18:29:03;;;;;;;6.03;1.95;;;15.50;99.90;;;;;;4900867;29;20507;-92
2021/08/27 18:31:29;;;;;;;6.97;2.22;;;15.50;99.90;;;;;;4901301;29;20123;-92
2021/08/27 18:33:55;;;;;;;7.30;1.63;;;15.50;99.90;;;;;;4901069;29;20084;-92
2021/08/27 18:36:21;;;;;;;4.03;1.65;;;15.50;99.90;;;;;;4901066;29;20028;-92
2021/08/27 18:38:46;;;;;;;8.30;1.98;;;15.40;99.90;;;;;;4901092;29;20486;-91
2021/08/27 18:41:12;;;;;;;3.65;1.83;;;15.40;99.90;;;;;;4900654;29;20029;-92
2021/08/27 18:43:38;;;;;;;4.07;1.80;;;15.40;99.90;;;;;;4902041;29;20068;-93
2021/08/27 18:46:09;;;;;;;6.25;1.80;;;15.30;99.90;;;;;;4902608;29;20033;-93
2021/08/27 18:48:35;;;;;;;;;;;15.30;99.90;;;;;;4900742;29;20037;-94
2021/08/27 18:51:00;;;;;;;3.33;1.20;;;15.30;99.90;;;;;;4902376;29;19907;-94
2021/08/27 18:53:26;;;;;;;4.97;2.03;;;15.20;99.90;;;;;;4903077;29;20101;-93
2021/08/27 18:55:52;;;;;;;3.95;1.35;;;15.20;99.90;;;;;;4967908;23;20065;-93
2021/08/27 18:58:22;;;;;;;7.65;1.50;;;15.20;99.90;;;;;;4909854;29;20135;-93
2021/08/27 19:00:49;;;;;;;3.60;1.38;;;15.20;99.90;;;;;;4909931;29;20105;-93
2021/08/27 19:03:14;;;;;;;4.22;1.60;;;15.10;99.90;;;;;;4923112;29;20479;-94
2021/08/27 19:05:41;;;;;;;3.78;1.55;;;15.20;99.90;;;;;;4910365;29;20032;-94
2021/08/27 19:08:07;;;;;;;5.40;1.55;;;15.10;99.90;;;;;;4910389;29;20025;-91
2021/08/27 19:10:33;;;;;;;4.82;1.65;;;15.10;99.90;;;;;;4910515;29;20029;-92
2021/08/27 19:13:01;;;;;;;3.75;1.35;;;15.10;99.90;;;;;;4908706;29;20029;-93
2021/08/27 19:15:27;;;;;;;4.10;1.75;;;15.00;99.90;;;;;;4909090;29;20056;-93
2021/08/27 19:17:54;;;;;;;2.42;1.20;;;15.00;99.90;;;;;;4892481;29;20036;-94
2021/08/27 19:20:20;;;;;;;5.65;1.60;;;15.00;99.90;;;;;;4907801;29;20088;-93
2021/08/27 19:22:45;;;;;;;4.22;2.05;;;15.00;99.90;;;;;;4908221;29;20032;-95
2021/08/27 19:25:12;;;;;;;3.45;1.55;;;15.00;99.90;;;;;;4908080;29;20111;-93
2021/08/27 19:27:38;;;;;;;2.78;1.40;;;15.00;99.90;;;;;;4905921;29;20052;-93
2021/08/27 19:30:13;;;;;;;4.78;1.80;;;15.00;99.90;;;;;;4909798;29;20394;-94
2021/08/27 19:32:40;;;;;;;3.42;1.58;;;15.00;99.90;;;;;;4902404;29;20029;-92
2021/08/27 19:35:06;;;;;;;3.97;1.48;;;14.90;99.90;;;;;;4904983;29;20032;-93
2021/08/27 19:37:35;;;;;;;4.45;1.60;;;14.90;99.90;;;;;;4903382;29;20487;-93
2021/08/27 19:40:09;;;;;;;4.28;1.70;;;14.90;99.90;;;;;;4904511;29;20029;-93
2021/08/27 19:42:35;;;;;;;2.95;1.67;;;14.90;99.90;;;;;;4905702;29;20088;-93
2021/08/27 19:45:05;;;;;;;5.25;1.80;;;14.90;99.90;;;;;;4906000;29;20032;-93
2021/08/27 19:47:32;;;;;;;3.60;1.60;;;14.80;99.90;;;;;;4905207;29;20029;-92
2021/08/27 19:49:58;;;;;;;7.63;1.65;;;14.80;99.90;;;;;;4922875;29;20036;-92
2021/08/27 19:52:24;;;;;;;3.40;1.67;;;14.80;99.90;;;;;;4905531;29;20044;-93
2021/08/27 19:54:50;;;;;;;4.50;2.10;;;14.80;99.90;;;;;;4899782;29;20107;-93
2021/08/27 19:57:18;;;;;;;4.95;1.98;;;14.80;99.90;;;;;;4918486;29;20112;-93
2021/08/27 19:59:45;;;;;;;4.75;1.80;;;14.80;99.90;;;;;;4908426;29;20107;-93
2021/08/27 20:02:11;;;;;;;6.15;1.85;;;14.80;99.90;;;;;;4907468;29;20041;-92
2021/08/27 20:04:37;;;;;;;6.68;1.92;;;14.70;99.90;;;;;;4905208;29;20024;-92
2021/08/27 20:07:03;;;;;;;10.02;2.03;;;14.70;99.90;;;;;;4911451;29;20104;-93
2021/08/27 20:09:28;;;;;;;6.40;2.67;;;14.70;99.90;;;;;;4917497;29;20013;-93
2021/08/27 20:11:54;;;;;;;6.10;1.85;;;14.70;99.90;;;;;;4932837;29;20032;-93
2021/08/27 20:14:20;;;;;;;5.43;2.05;;;14.70;99.90;;;;;;4909591;29;20025;-93
2021/08/27 20:16:46;;;;;;;7.43;2.58;;;14.60;99.90;;;;;;4910552;29;20032;-93
2021/08/27 20:19:12;;;;;;;4.63;1.63;;;14.60;99.90;;;;;;4912560;29;20037;-93
2021/08/27 20:21:41;;;;;;;7.07;2.10;;;14.60;99.90;;;;;;4889520;29;20043;-92
2021/08/27 20:24:06;;;;;;;6.68;2.00;;;14.60;99.90;;;;;;4906386;29;20031;-92
2021/08/27 20:26:34;;;;;;;2.67;1.80;;;14.60;99.90;;;;;;4906275;29;20095;-93
2021/08/27 20:29:00;;;;;;;7.82;2.20;;;14.60;99.90;;;;;;4905031;29;20028;-93
2021/08/27 20:31:26;;;;;;;8.95;2.10;;;14.50;99.90;;;;;;4908397;29;20047;-93
2021/08/27 20:33:51;;;;;;;12.38;2.33;;;14.50;99.90;;;;;;4903038;29;20562;-93
2021/08/27 20:36:17;;;;;;;5.47;2.10;;;14.50;99.90;;;;;;4922455;29;20037;-93
2021/08/27 20:38:43;;;;;;;9.73;2.70;;;14.50;99.90;;;;;;4906339;29;20024;-92
2021/08/27 20:41:09;;;;;;;7.20;2.42;;;14.50;99.90;;;;;;4908803;29;20041;-93
2021/08/27 20:43:34;;;;;;;8.10;2.17;;;14.50;99.90;;;;;;4923386;29;20031;-92
2021/08/27 20:46:01;;;;;;;5.70;2.58;;;14.50;99.90;;;;;;4909656;29;20402;-93
2021/08/27 20:48:27;;;;;;;5.40;2.35;;;14.40;99.90;;;;;;4910655;29;20049;-93
2021/08/27 20:50:53;;;;;;;7.72;2.42;;;14.40;99.90;;;;;;4907603;29;20064;-93
2021/08/27 20:53:18;;;;;;;10.63;2.53;;;14.40;99.90;;;;;;4921638;29;20483;-94
2021/08/27 20:55:44;;;;;;;8.43;3.00;;;14.40;99.90;;;;;;4908713;29;20059;-94